Time;durP1;ratioP1;P1;durP2;ratioP2;P2;SDS_P1;SDS_P2;PMS_P1;PMS_P2;Temp;Humidity;BMP_temperature;BMP_pressure;BME280_temperature;BME280_humidity;BME280_pressure;Samples;Min_cycle;Max_cycle;Signal;HPM_P1;HPM_P2
2023/04/28 00:02:01;;;;;;;8.00;7.00;;;6.00;99.90;;;;;;5040679;28;20422;-67
2023/04/28 00:04:27;;;;;;;9.70;7.07;;;6.00;99.90;;;;;;5049850;28;20997;-67
2023/04/28 00:06:52;;;;;;;6.30;5.13;;;5.90;99.90;;;;;;5051109;28;20967;-67
2023/04/28 00:09:18;;;;;;;8.90;5.70;;;5.90;99.90;;;;;;5046634;28;20668;-67
2023/04/28 00:11:45;;;;;;;11.10;6.03;;;5.90;99.90;;;;;;5047215;28;20561;-67
2023/04/28 00:14:11;;;;;;;9.73;5.10;;;5.90;99.90;;;;;;5053857;28;20253;-67
2023/04/28 00:16:36;;;;;;;7.03;5.17;;;5.90;99.90;;;;;;5050215;28;20533;-66
2023/04/28 00:19:02;;;;;;;10.37;4.37;;;5.80;99.90;;;;;;5051017;28;20928;-67
2023/04/28 00:21:28;;;;;;;7.33;5.20;;;5.90;99.90;;;;;;5054100;28;20198;-67
2023/04/28 00:23:53;;;;;;;10.03;5.53;;;5.80;99.90;;;;;;5053845;28;20202;-67
2023/04/28 00:26:19;;;;;;;7.67;5.30;;;5.80;99.90;;;;;;5053925;28;20437;-67
2023/04/28 00:28:45;;;;;;;7.83;4.27;;;5.80;99.90;;;;;;5052964;28;20550;-67
2023/04/28 00:31:13;;;;;;;11.27;5.47;;;5.80;99.90;;;;;;5035113;28;20513;-66
2023/04/28 00:33:39;;;;;;;10.10;4.50;;;5.80;99.90;;;;;;5037527;28;20179;-67
2023/04/28 00:36:05;;;;;;;5.50;4.43;;;5.80;99.90;;;;;;5044081;28;20560;-66
2023/04/28 00:38:31;;;;;;;9.50;5.10;;;5.80;99.90;;;;;;5054610;28;20929;-67
2023/04/28 00:40:56;;;;;;;10.13;5.10;;;5.80;99.90;;;;;;5050570;28;20481;-66
2023/04/28 00:43:22;;;;;;;8.00;5.23;;;5.80;99.90;;;;;;5047741;28;20199;-66
2023/04/28 00:45:49;;;;;;;5.40;5.00;;;5.80;99.90;;;;;;5027199;28;20183;-67
2023/04/28 00:48:14;;;;;;;5.10;4.37;;;5.70;99.90;;;;;;5028650;28;20186;-67
2023/04/28 00:50:42;;;;;;;8.03;4.80;;;5.70;99.90;;;;;;5041268;28;20424;-67
2023/04/28 00:53:09;;;;;;;5.03;4.40;;;5.70;99.90;;;;;;5027606;28;20528;-66
2023/04/28 00:55:36;;;;;;;4.37;3.97;;;5.70;99.90;;;;;;5047665;28;20530;-67
2023/04/28 00:58:01;;;;;;;7.37;4.60;;;5.70;99.90;;;;;;5042367;28;20452;-67
2023/04/28 01:00:27;;;;;;;10.97;5.40;;;5.70;99.90;;;;;;5042444;28;20497;-66
2023/04/28 01:02:54;;;;;;;5.00;3.67;;;5.60;99.90;;;;;;5044966;28;20210;-66
2023/04/28 01:05:20;;;;;;;7.70;4.10;;;5.60;99.90;;;;;;5037756;28;20658;-66
2023/04/28 01:07:45;;;;;;;5.90;3.80;;;5.60;99.90;;;;;;5053325;28;20513;-67
2023/04/28 01:10:11;;;;;;;6.13;4.60;;;5.60;99.90;;;;;;5046383;28;20921;-69
2023/04/28 01:12:36;;;;;;;5.73;3.87;;;5.60;99.90;;;;;;5054992;28;20206;-66
2023/04/28 01:15:02;;;;;;;4.33;3.93;;;5.60;99.90;;;;;;5046633;28;20665;-66
2023/04/28 01:17:28;;;;;;;4.73;4.20;;;5.60;99.90;;;;;;5053562;28;20207;-66
2023/04/28 01:19:54;;;;;;;5.97;4.00;;;5.70;99.90;;;;;;5043337;28;20494;-67
2023/04/28 01:22:20;;;;;;;5.70;3.43;;;5.60;99.90;;;;;;5026675;28;20538;-66
2023/04/28 01:24:45;;;;;;;8.60;3.90;;;5.60;99.90;;;;;;5037692;28;20531;-66
2023/04/28 01:27:11;;;;;;;6.13;4.23;;;5.60;99.90;;;;;;5022732;28;20234;-67
2023/04/28 01:29:36;;;;;;;8.27;4.27;;;5.70;99.90;;;;;;5049908;28;20250;-67
2023/04/28 01:32:02;;;;;;;4.83;3.70;;;5.70;99.90;;;;;;5034288;28;20186;-66
2023/04/28 01:34:28;;;;;;;9.10;3.83;;;5.60;99.90;;;;;;5022480;28;20176;-67
2023/04/28 01:36:53;;;;;;;4.30;3.90;;;5.60;99.90;;;;;;5027255;28;20457;-66
2023/04/28 01:39:19;;;;;;;6.80;4.13;;;5.60;99.90;;;;;;5035116;28;20171;-67
2023/04/28 01:41:45;;;;;;;3.90;3.53;;;5.60;99.90;;;;;;5046285;28;20659;-65
2023/04/28 01:44:11;;;;;;;4.47;4.00;;;5.70;99.90;;;;;;5049037;28;20245;-68
2023/04/28 01:46:37;;;;;;;5.97;3.93;;;5.70;99.90;;;;;;5046303;28;20258;-66
2023/04/28 01:49:03;;;;;;;5.57;3.70;;;5.70;99.90;;;;;;5048257;28;20496;-66
2023/04/28 01:51:28;;;;;;;4.47;4.07;;;5.60;99.90;;;;;;5052283;28;20590;-66
2023/04/28 01:53:54;;;;;;;6.13;3.90;;;5.60;99.90;;;;;;5045371;28;20180;-66
2023/04/28 01:56:20;;;;;;;6.80;3.87;;;5.60;99.90;;;;;;5033878;28;20227;-66
2023/04/28 01:58:45;;;;;;;6.47;3.77;;;5.60;99.90;;;;;;5039278;28;20700;-66
2023/04/28 02:01:11;;;;;;;4.13;3.67;;;5.60;99.90;;;;;;5044704;28;20422;-66
2023/04/28 02:03:36;;;;;;;6.60;3.70;;;5.60;99.90;;;;;;5046404;28;20592;-66
2023/04/28 02:06:03;;;;;;;6.30;3.83;;;5.60;99.90;;;;;;5042460;28;20218;-66
2023/04/28 02:08:29;;;;;;;5.80;4.37;;;5.50;99.90;;;;;;5004034;28;20190;-65
2023/04/28 02:10:56;;;;;;;4.70;3.60;;;5.50;99.90;;;;;;5045907;28;20524;-67
2023/04/28 02:13:22;;;;;;;7.73;3.87;;;5.50;99.90;;;;;;5033397;28;20262;-66
2023/04/28 02:15:48;;;;;;;6.30;3.77;;;5.50;99.90;;;;;;5051367;28;20488;-67
2023/04/28 02:18:13;;;;;;;5.63;4.13;;;5.50;99.90;;;;;;5050963;28;20898;-66
2023/04/28 02:20:39;;;;;;;5.37;3.23;;;5.50;99.90;;;;;;5050491;28;20179;-67
2023/04/28 02:23:05;;;;;;;5.90;4.30;;;5.40;99.90;;;;;;5051546;28;20255;-67
2023/04/28 02:25:31;;;;;;;4.43;4.03;;;5.50;99.90;;;;;;5051615;28;20922;-67
2023/04/28 02:27:56;;;;;;;10.20;4.57;;;5.40;99.90;;;;;;5030110;28;20199;-68
2023/04/28 02:30:22;;;;;;;4.93;3.43;;;5.40;99.90;;;;;;5023361;28;20182;-66
2023/04/28 02:32:48;;;;;;;3.90;3.50;;;5.40;99.90;;;;;;5027628;28;21875;-66
2023/04/28 02:35:14;;;;;;;3.73;3.17;;;5.40;99.90;;;;;;5022665;28;20183;-67
2023/04/28 02:37:39;;;;;;;7.17;3.43;;;5.30;99.90;;;;;;5023595;28;20201;-67
2023/04/28 02:40:06;;;;;;;6.47;3.60;;;5.30;99.90;;;;;;5032931;28;20657;-69
2023/04/28 02:42:31;;;;;;;7.67;4.13;;;5.30;99.90;;;;;;5042886;28;20227;-67
2023/04/28 02:44:57;;;;;;;5.93;2.70;;;5.30;99.90;;;;;;5037780;28;20505;-67
2023/04/28 02:47:22;;;;;;;9.93;3.77;;;5.30;99.90;;;;;;5043309;28;20195;-68
2023/04/28 02:49:48;;;;;;;4.77;3.67;;;5.20;99.90;;;;;;5043330;28;20179;-67
2023/04/28 02:52:14;;;;;;;5.10;3.30;;;5.20;99.90;;;;;;5052219;28;20182;-68
2023/04/28 02:54:40;;;;;;;4.03;3.53;;;5.30;99.90;;;;;;5046487;28;20174;-66
2023/04/28 02:57:05;;;;;;;8.77;3.27;;;5.30;99.90;;;;;;5030653;28;20673;-68
2023/04/28 02:59:31;;;;;;;5.63;4.23;;;5.30;99.90;;;;;;5050446;28;20508;-68
2023/04/28 03:01:57;;;;;;;3.57;2.80;;;5.20;99.90;;;;;;5052031;28;20177;-66
2023/04/28 03:04:22;;;;;;;5.93;4.10;;;5.30;99.90;;;;;;5048954;28;20690;-66
2023/04/28 03:06:48;;;;;;;3.87;3.27;;;5.20;99.90;;;;;;5051210;28;20190;-66
2023/04/28 03:09:14;;;;;;;6.00;3.90;;;5.30;99.90;;;;;;5047289;28;20235;-66
2023/04/28 03:11:40;;;;;;;3.97;3.63;;;5.20;99.90;;;;;;5053465;28;20201;-67
2023/04/28 03:14:06;;;;;;;4.20;3.90;;;5.30;99.90;;;;;;5042679;28;20521;-67
2023/04/28 03:16:32;;;;;;;4.93;3.53;;;5.20;99.90;;;;;;5040890;28;20202;-67
2023/04/28 03:18:57;;;;;;;7.50;4.17;;;5.20;99.90;;;;;;5049648;28;20536;-67
2023/04/28 03:21:25;;;;;;;6.80;4.03;;;5.20;99.90;;;;;;5046582;28;20538;-66
2023/04/28 03:23:51;;;;;;;10.90;3.97;;;5.20;99.90;;;;;;5050755;28;20287;-68
2023/04/28 03:26:16;;;;;;;8.00;3.70;;;5.20;99.90;;;;;;5045346;28;20534;-67
2023/04/28 03:28:42;;;;;;;4.80;3.90;;;5.20;99.90;;;;;;5051067;28;20514;-67
2023/04/28 03:31:07;;;;;;;4.40;3.60;;;5.20;99.90;;;;;;5039353;28;20472;-66
2023/04/28 03:33:33;;;;;;;4.37;3.60;;;5.20;99.90;;;;;;5010325;28;20179;-67
2023/04/28 03:35:58;;;;;;;8.73;4.40;;;5.20;99.90;;;;;;5043126;28;21939;-67
2023/04/28 03:38:24;;;;;;;5.60;3.83;;;5.20;99.90;;;;;;5037705;28;20195;-66
2023/04/28 03:40:50;;;;;;;5.33;3.73;;;5.20;99.90;;;;;;5046224;28;20652;-66
2023/04/28 03:43:16;;;;;;;4.20;3.60;;;5.30;99.90;;;;;;5042788;28;20214;-67
2023/04/28 03:45:41;;;;;;;10.10;4.47;;;5.30;99.90;;;;;;5045789;28;20171;-66
2023/04/28 03:48:07;;;;;;;6.00;3.53;;;5.30;99.90;;;;;;5049077;28;20456;-67
2023/04/28 03:50:32;;;;;;;6.50;3.23;;;5.30;99.90;;;;;;5041394;28;20673;-66
2023/04/28 03:52:58;;;;;;;6.43;3.63;;;5.30;99.90;;;;;;5042816;28;20182;-67
2023/04/28 03:55:24;;;;;;;4.33;3.20;;;5.30;99.90;;;;;;5044032;28;20178;-67
2023/04/28 03:57:50;;;;;;;3.40;3.10;;;5.40;99.90;;;;;;5054124;28;20343;-67
2023/04/28 04:00:16;;;;;;;6.83;3.40;;;5.40;99.90;;;;;;5051844;28;20429;-67
2023/04/28 04:02:42;;;;;;;5.37;3.63;;;5.40;99.90;;;;;;5048716;28;20417;-67
2023/04/28 04:05:08;;;;;;;5.47;3.93;;;5.50;99.90;;;;;;5029505;28;20195;-67
2023/04/28 04:07:33;;;;;;;6.70;3.23;;;5.50;99.90;;;;;;5024549;28;20243;-66
2023/04/28 04:09:59;;;;;;;6.00;4.10;;;5.60;99.90;;;;;;5024394;28;20548;-66
2023/04/28 04:12:25;;;;;;;3.60;3.30;;;5.60;99.90;;;;;;5047414;28;20171;-66
2023/04/28 04:14:50;;;;;;;3.83;2.87;;;5.70;99.90;;;;;;5052229;28;20231;-67
2023/04/28 04:17:16;;;;;;;4.27;3.23;;;5.70;99.90;;;;;;5051969;28;20261;-67
2023/04/28 04:19:42;;;;;;;7.90;3.67;;;5.70;99.90;;;;;;5053692;28;20245;-66
2023/04/28 04:22:07;;;;;;;6.87;4.63;;;5.80;99.90;;;;;;5053391;28;20699;-66
2023/04/28 04:24:33;;;;;;;9.20;4.47;;;5.90;99.90;;;;;;5055152;28;20524;-66
2023/04/28 04:26:58;;;;;;;8.43;4.80;;;6.00;99.90;;;;;;5053240;28;20268;-67
2023/04/28 04:29:24;;;;;;;7.20;3.13;;;6.00;99.90;;;;;;5044400;28;20183;-66
2023/04/28 04:31:50;;;;;;;5.97;3.27;;;6.00;99.90;;;;;;5051095;28;20178;-66
2023/04/28 04:34:15;;;;;;;5.93;4.07;;;6.10;99.90;;;;;;5055094;28;20175;-67
2023/04/28 04:36:41;;;;;;;6.07;4.50;;;6.10;99.90;;;;;;5054719;28;20236;-68
2023/04/28 04:39:06;;;;;;;6.10;3.77;;;6.10;99.90;;;;;;5053225;28;20187;-66
2023/04/28 04:41:32;;;;;;;3.40;3.10;;;6.20;99.90;;;;;;5053539;28;20258;-68
2023/04/28 04:43:58;;;;;;;5.50;4.03;;;6.20;99.90;;;;;;5052513;28;20203;-66
2023/04/28 04:46:23;;;;;;;4.93;3.33;;;6.20;99.90;;;;;;5053522;28;20665;-67
2023/04/28 04:48:49;;;;;;;5.30;3.30;;;6.30;99.90;;;;;;5033852;28;20168;-65
2023/04/28 04:51:14;;;;;;;6.77;3.77;;;6.30;99.90;;;;;;5051997;28;20680;-66
2023/04/28 04:53:40;;;;;;;4.90;3.50;;;6.30;99.90;;;;;;5052469;28;20175;-67
2023/04/28 04:56:06;;;;;;;3.73;3.30;;;6.40;99.90;;;;;;5052723;28;20191;-67
2023/04/28 04:58:32;;;;;;;5.93;4.07;;;6.40;99.90;;;;;;5037359;28;20191;-67
2023/04/28 05:00:57;;;;;;;5.60;3.17;;;6.40;99.90;;;;;;5034010;28;20434;-67
2023/04/28 05:03:23;;;;;;;5.33;3.47;;;6.50;99.90;;;;;;5052343;28;20198;-66
2023/04/28 05:05:49;;;;;;;5.30;3.73;;;6.60;99.90;;;;;;5053619;28;20574;-66
2023/04/28 05:08:14;;;;;;;5.40;4.10;;;6.70;99.90;;;;;;5048838;28;20174;-66
2023/04/28 05:10:40;;;;;;;5.83;3.77;;;6.80;99.90;;;;;;5054512;28;20177;-66
2023/04/28 05:13:06;;;;;;;4.33;3.77;;;6.90;99.90;;;;;;5045188;28;20229;-66
2023/04/28 05:15:31;;;;;;;4.53;3.30;;;6.90;99.90;;;;;;5047207;28;20166;-67
2023/04/28 05:17:57;;;;;;;4.80;3.50;;;7.10;99.90;;;;;;5040152;28;20207;-67
2023/04/28 05:20:23;;;;;;;6.03;3.50;;;7.30;99.90;;;;;;5051721;28;20536;-66
2023/04/28 05:22:49;;;;;;;6.13;3.43;;;7.40;99.90;;;;;;5046898;28;20240;-66
2023/04/28 05:25:15;;;;;;;5.87;3.30;;;7.70;99.90;;;;;;5050824;28;20471;-66
2023/04/28 05:27:41;;;;;;;7.30;3.97;;;8.00;99.90;;;;;;5031333;28;21214;-66
2023/04/28 05:30:07;;;;;;;4.47;3.50;;;8.40;99.90;;;;;;5023633;28;20191;-67
2023/04/28 05:32:34;;;;;;;5.13;3.30;;;9.00;99.90;;;;;;5036016;28;20642;-66
2023/04/28 05:35:00;;;;;;;4.50;3.33;;;9.50;99.90;;;;;;5049810;28;20543;-66
2023/04/28 05:37:26;;;;;;;4.43;3.57;;;9.60;99.90;;;;;;5052221;28;20512;-66
2023/04/28 05:39:52;;;;;;;5.87;3.43;;;10.20;99.90;;;;;;5049938;28;20410;-67
2023/04/28 05:42:17;;;;;;;3.67;3.23;;;10.70;99.90;;;;;;5039649;28;20280;-67
2023/04/28 05:44:43;;;;;;;5.33;3.30;;;11.00;99.90;;;;;;5025213;28;20244;-67
2023/04/28 05:47:08;;;;;;;6.37;3.33;;;11.20;99.90;;;;;;5025715;28;20213;-67
2023/04/28 05:49:34;;;;;;;5.13;3.20;;;11.40;99.90;;;;;;5047873;28;20262;-67
2023/04/28 05:52:00;;;;;;;6.13;3.23;;;11.70;99.70;;;;;;5025293;28;20210;-67
2023/04/28 05:54:25;;;;;;;5.20;3.00;;;11.90;99.40;;;;;;5047676;28;20240;-67
2023/04/28 05:56:52;;;;;;;6.10;3.90;;;11.80;98.80;;;;;;5042330;28;20369;-67
2023/04/28 05:59:18;;;;;;;3.50;3.20;;;11.70;98.70;;;;;;5051309;28;20696;-67
2023/04/28 06:01:44;;;;;;;5.50;3.43;;;12.40;98.60;;;;;;5052327;28;20406;-67
2023/04/28 06:04:10;;;;;;;5.00;2.70;;;12.70;97.30;;;;;;5041510;28;20922;-67
2023/04/28 06:06:35;;;;;;;8.73;3.57;;;12.80;96.50;;;;;;5052066;28;20457;-66
2023/04/28 06:09:02;;;;;;;4.80;3.40;;;12.50;96.20;;;;;;5050281;28;20604;-67
2023/04/28 06:11:27;;;;;;;3.73;3.13;;;12.70;97.20;;;;;;5050204;28;20171;-67
2023/04/28 06:13:53;;;;;;;4.30;3.90;;;12.70;96.00;;;;;;5045855;28;20430;-68
2023/04/28 06:16:19;;;;;;;5.80;3.40;;;12.80;95.60;;;;;;5052229;28;20204;-66
2023/04/28 06:18:44;;;;;;;6.30;3.90;;;12.90;95.80;;;;;;5051832;28;20175;-67
2023/04/28 06:21:10;;;;;;;5.10;3.53;;;12.90;94.90;;;;;;5053804;28;20194;-67
2023/04/28 06:23:37;;;;;;;10.60;3.70;;;13.20;95.10;;;;;;5052306;28;20204;-67
2023/04/28 06:26:03;;;;;;;8.10;4.27;;;13.20;94.50;;;;;;5053148;28;20248;-67
2023/04/28 06:28:29;;;;;;;4.47;4.07;;;13.30;94.50;;;;;;5052648;28;20913;-67
2023/04/28 06:30:54;;;;;;;5.80;4.10;;;13.50;94.30;;;;;;5052215;28;20592;-67
2023/04/28 06:33:20;;;;;;;4.60;3.30;;;13.90;93.70;;;;;;5026594;28;20174;-67
2023/04/28 06:35:46;;;;;;;4.53;3.73;;;14.10;93.00;;;;;;5032145;28;20206;-67
2023/04/28 06:38:11;;;;;;;4.80;3.20;;;14.10;92.50;;;;;;5032605;28;20193;-67
2023/04/28 06:40:39;;;;;;;6.33;3.33;;;14.50;92.20;;;;;;5028041;28;20584;-67
2023/04/28 06:43:05;;;;;;;9.43;5.77;;;14.60;91.50;;;;;;5022085;28;20207;-67
2023/04/28 06:45:30;;;;;;;6.07;4.20;;;14.80;91.30;;;;;;5046194;28;20425;-68
2023/04/28 06:47:56;;;;;;;4.50;3.50;;;15.20;90.80;;;;;;5041478;28;20262;-67
2023/04/28 06:50:22;;;;;;;8.23;3.57;;;15.70;90.10;;;;;;5052098;28;20179;-66
2023/04/28 06:52:48;;;;;;;5.80;3.70;;;16.00;89.40;;;;;;5050220;28;20184;-66
2023/04/28 06:55:16;;;;;;;4.13;2.93;;;15.80;87.50;;;;;;5051951;28;20409;-67
2023/04/28 06:57:41;;;;;;;5.40;3.33;;;15.50;88.50;;;;;;5034205;28;20614;-67
2023/04/28 07:00:08;;;;;;;7.33;3.50;;;15.00;88.40;;;;;;5039350;28;20436;-67
2023/04/28 07:02:35;;;;;;;6.73;3.47;;;15.20;88.00;;;;;;5035443;28;20184;-66
2023/04/28 07:05:01;;;;;;;4.30;3.07;;;15.30;86.90;;;;;;5042354;28;20449;-67
2023/04/28 07:07:26;;;;;;;4.73;2.97;;;15.30;86.30;;;;;;5041297;28;20442;-67
2023/04/28 07:09:52;;;;;;;3.70;2.40;;;15.10;85.30;;;;;;5042356;28;20463;-66
2023/04/28 07:12:18;;;;;;;4.60;3.20;;;15.10;84.70;;;;;;5040117;28;20175;-67
2023/04/28 07:14:43;;;;;;;4.80;2.67;;;15.00;84.30;;;;;;5042764;28;20187;-66
2023/04/28 07:17:09;;;;;;;3.37;2.73;;;15.10;86.00;;;;;;5044999;28;20293;-69
2023/04/28 07:19:35;;;;;;;3.57;2.80;;;15.00;85.40;;;;;;5043695;28;20211;-67
2023/04/28 07:22:00;;;;;;;3.80;2.40;;;16.20;85.80;;;;;;5046878;28;20464;-66
2023/04/28 07:24:27;;;;;;;2.63;2.37;;;16.60;83.40;;;;;;5046264;28;20212;-68
2023/04/28 07:26:53;;;;;;;3.87;2.67;;;16.80;81.30;;;;;;5046637;28;20212;-69
2023/04/28 07:29:19;;;;;;;2.90;2.60;;;17.10;79.10;;;;;;5043215;28;20456;-68
2023/04/28 07:31:45;;;;;;;2.67;2.20;;;17.00;78.70;;;;;;5044951;28;20176;-68
2023/04/28 07:34:10;;;;;;;4.47;2.80;;;17.00;78.70;;;;;;5040516;28;20435;-66
2023/04/28 07:36:36;;;;;;;3.07;2.33;;;17.30;77.40;;;;;;5025056;28;20531;-66
2023/04/28 07:39:02;;;;;;;3.30;3.00;;;17.40;76.30;;;;;;5044820;28;20168;-66
2023/04/28 07:41:28;;;;;;;6.00;2.60;;;17.60;74.50;;;;;;5042394;28;20188;-66
2023/04/28 07:43:53;;;;;;;4.80;3.37;;;17.80;74.70;;;;;;5045699;28;20186;-66
2023/04/28 07:46:19;;;;;;;4.67;2.70;;;18.00;74.20;;;;;;5043731;28;20498;-66
2023/04/28 07:48:45;;;;;;;7.43;2.90;;;18.30;73.00;;;;;;5043748;28;20543;-66
2023/04/28 07:51:10;;;;;;;4.70;2.63;;;17.50;73.60;;;;;;5045696;28;20180;-68
2023/04/28 07:53:36;;;;;;;3.87;2.50;;;18.10;73.20;;;;;;5024890;28;20181;-69
2023/04/28 07:56:02;;;;;;;4.03;2.63;;;18.40;70.60;;;;;;5035942;28;20185;-66
2023/04/28 07:58:28;;;;;;;3.33;2.63;;;18.90;70.70;;;;;;5051993;28;20180;-67
2023/04/28 08:00:53;;;;;;;3.77;2.90;;;19.10;69.70;;;;;;5045349;28;20416;-66
2023/04/28 08:03:20;;;;;;;5.07;3.47;;;18.50;68.10;;;;;;5047377;28;20191;-66
2023/04/28 08:05:45;;;;;;;3.80;2.93;;;17.70;69.10;;;;;;5046990;28;20169;-66
2023/04/28 08:08:12;;;;;;;6.60;3.50;;;17.60;69.50;;;;;;5043429;28;20933;-67
2023/04/28 08:10:40;;;;;;;3.53;3.23;;;17.30;70.10;;;;;;5052234;28;20443;-67
2023/04/28 08:13:06;;;;;;;6.50;3.30;;;16.40;71.40;;;;;;5040477;28;20189;-67
2023/04/28 08:15:32;;;;;;;6.67;3.20;;;16.50;72.90;;;;;;5038564;28;20797;-67
2023/04/28 08:17:58;;;;;;;3.67;3.07;;;16.60;72.40;;;;;;5044137;28;20270;-66
2023/04/28 08:20:23;;;;;;;3.77;3.00;;;16.60;73.00;;;;;;5045832;28;20174;-67
2023/04/28 08:22:49;;;;;;;3.87;3.07;;;17.00;71.60;;;;;;5038207;28;20268;-67
2023/04/28 08:25:14;;;;;;;3.90;3.03;;;17.40;72.30;;;;;;5023652;28;20190;-66
2023/04/28 08:27:40;;;;;;;4.53;2.97;;;17.40;71.90;;;;;;5039756;28;20548;-67
2023/04/28 08:30:07;;;;;;;3.43;2.90;;;17.30;70.90;;;;;;5034602;28;20181;-67
2023/04/28 08:32:33;;;;;;;6.23;2.90;;;17.40;71.60;;;;;;5051197;28;20200;-67
2023/04/28 08:34:59;;;;;;;2.90;2.60;;;17.60;70.40;;;;;;5052622;28;20410;-67
2023/04/28 08:37:26;;;;;;;5.70;3.20;;;17.90;70.70;;;;;;5052459;28;20274;-66
2023/04/28 08:40:00;;;;;;;3.57;2.97;;;18.00;69.40;;;;;;5051321;28;20167;-66
2023/04/28 08:42:29;;;;;;;4.00;3.60;;;17.70;69.20;;;;;;5044868;28;20498;-67
2023/04/28 08:44:59;;;;;;;4.83;2.97;;;17.20;69.50;;;;;;5051581;28;20488;-68
2023/04/28 08:47:46;;;;;;;5.50;2.93;;;16.70;69.90;;;;;;5052950;28;20432;-67
2023/04/28 08:50:13;;;;;;;2.80;2.37;;;16.90;70.70;;;;;;5046850;28;20772;-70
2023/04/28 08:52:40;;;;;;;6.33;3.50;;;17.10;70.10;;;;;;5053627;28;21067;-74
2023/04/28 08:55:08;;;;;;;3.50;2.70;;;16.80;70.70;;;;;;5053329;28;20432;-69
2023/04/28 08:57:38;;;;;;;6.80;2.80;;;17.00;71.90;;;;;;5036256;28;21586;-69
2023/04/28 09:00:05;;;;;;;4.63;3.27;;;17.30;71.10;;;;;;5029744;28;20508;-67
2023/04/28 09:02:31;;;;;;;4.90;3.17;;;17.30;69.70;;;;;;5040771;28;20437;-69
2023/04/28 09:04:56;;;;;;;5.77;3.97;;;17.50;69.10;;;;;;5033207;28;20478;-68
2023/04/28 09:07:22;;;;;;;4.03;3.30;;;17.70;68.60;;;;;;5035348;28;20249;-68
2023/04/28 09:09:48;;;;;;;9.57;3.30;;;17.20;68.80;;;;;;5052241;28;20186;-68
2023/04/28 09:12:14;;;;;;;5.10;3.27;;;17.30;69.30;;;;;;5044024;28;20538;-68
2023/04/28 09:14:39;;;;;;;3.47;3.17;;;17.70;69.00;;;;;;5045959;28;20348;-70
2023/04/28 09:17:11;;;;;;;5.90;3.40;;;17.70;68.40;;;;;;5046312;28;20691;-68
2023/04/28 09:19:38;;;;;;;5.63;3.27;;;17.60;67.40;;;;;;5042727;28;20184;-67
2023/04/28 09:22:04;;;;;;;4.50;4.00;;;17.50;70.10;;;;;;5049504;28;20485;-67
2023/04/28 09:24:33;;;;;;;3.60;3.00;;;17.50;68.30;;;;;;5048074;28;20463;-67
2023/04/28 09:27:01;;;;;;;7.47;3.77;;;17.80;68.90;;;;;;5044436;28;20444;-67
2023/04/28 09:29:27;;;;;;;4.77;3.70;;;17.70;68.40;;;;;;5046191;28;20423;-68
2023/04/28 09:31:53;;;;;;;3.73;3.17;;;17.90;68.60;;;;;;5044637;28;20895;-68
2023/04/28 09:34:21;;;;;;;3.57;3.17;;;18.10;68.60;;;;;;5052432;28;20420;-68
2023/04/28 09:36:47;;;;;;;3.63;2.83;;;18.00;67.20;;;;;;5045460;28;20439;-68
2023/04/28 09:39:13;;;;;;;11.37;3.90;;;17.80;68.10;;;;;;5049976;28;20461;-68
2023/04/28 09:41:39;;;;;;;4.40;3.57;;;17.70;68.40;;;;;;5046385;28;20638;-68
2023/04/28 09:44:17;;;;;;;4.30;3.83;;;17.80;69.00;;;;;;5041550;28;20207;-68
2023/04/28 09:46:44;;;;;;;4.13;3.30;;;18.40;68.20;;;;;;5043187;28;20459;-70
2023/04/28 09:49:12;;;;;;;5.83;4.10;;;18.90;67.60;;;;;;5047766;28;20876;-67
2023/04/28 09:51:38;;;;;;;8.47;4.43;;;18.70;67.00;;;;;;5042292;28;20436;-67
2023/04/28 09:54:04;;;;;;;8.40;5.27;;;18.10;66.80;;;;;;5043855;28;20809;-66
2023/04/28 09:56:32;;;;;;;4.10;3.70;;;17.50;68.30;;;;;;5040476;28;20444;-66
2023/04/28 09:58:59;;;;;;;6.03;3.47;;;17.60;68.60;;;;;;5040007;28;20438;-67
2023/04/28 10:01:32;;;;;;;5.20;3.80;;;17.50;69.50;;;;;;5047940;28;20425;-66
2023/04/28 10:04:01;;;;;;;7.90;3.57;;;17.80;69.00;;;;;;5047845;28;20458;-66
2023/04/28 10:06:28;;;;;;;7.83;4.03;;;17.90;69.00;;;;;;5036184;28;20497;-66
2023/04/28 10:08:57;;;;;;;8.27;3.60;;;17.60;70.20;;;;;;5046222;28;20954;-66
2023/04/28 10:11:24;;;;;;;7.60;3.70;;;17.40;69.40;;;;;;5045865;28;20406;-66
2023/04/28 10:13:52;;;;;;;4.33;3.50;;;17.10;70.40;;;;;;5043218;28;20413;-69
2023/04/28 10:16:18;;;;;;;4.63;3.73;;;17.00;71.30;;;;;;5043212;28;20454;-66
2023/04/28 10:18:44;;;;;;;5.20;4.70;;;17.20;72.00;;;;;;5044371;28;20415;-66
2023/04/28 10:21:11;;;;;;;4.70;3.63;;;17.40;72.40;;;;;;5041878;28;20420;-67
2023/04/28 10:23:55;;;;;;;6.90;3.87;;;17.20;71.50;;;;;;5039441;28;20219;-67
2023/04/28 10:26:23;;;;;;;7.50;4.53;;;16.90;72.00;;;;;;5042806;28;20465;-66
2023/04/28 10:28:50;;;;;;;6.87;6.17;;;16.80;72.80;;;;;;5043158;28;20412;-67
2023/04/28 10:31:20;;;;;;;5.57;3.90;;;17.00;74.70;;;;;;5041259;28;20407;-67
2023/04/28 10:33:48;;;;;;;5.53;4.53;;;17.20;72.70;;;;;;5044902;28;20926;-67
2023/04/28 10:36:46;;;;;;;7.67;5.20;;;17.20;72.20;;;;;;5043542;28;20445;-68
2023/04/28 10:39:11;;;;;;;11.10;6.10;;;17.30;75.30;;;;;;5045281;28;20417;-67
2023/04/28 10:41:37;;;;;;;6.30;5.10;;;17.30;74.40;;;;;;5051103;28;20506;-67
2023/04/28 10:44:28;;;;;;;5.87;4.83;;;17.30;74.20;;;;;;5049101;28;20218;-67
2023/04/28 10:47:09;;;;;;;5.30;4.03;;;17.20;73.00;;;;;;5051636;28;20195;-66
2023/04/28 10:50:03;;;;;;;4.30;3.50;;;17.00;73.30;;;;;;5057204;28;20559;-68
2023/04/28 10:52:37;;;;;;;7.80;4.47;;;17.20;74.10;;;;;;5049698;28;20418;-67
2023/04/28 10:55:30;;;;;;;5.90;3.80;;;17.20;74.00;;;;;;5053377;28;20434;-67
2023/04/28 10:58:14;;;;;;;8.30;3.97;;;17.10;73.60;;;;;;5051654;28;20530;-67
2023/04/28 11:00:40;;;;;;;5.30;3.67;;;17.40;74.20;;;;;;5050301;28;20426;-67
2023/04/28 11:03:06;;;;;;;4.07;3.43;;;17.20;72.90;;;;;;5050978;28;20778;-67
2023/04/28 11:05:34;;;;;;;5.13;3.57;;;17.00;73.50;;;;;;5044859;28;20408;-67
2023/04/28 11:08:24;;;;;;;8.17;4.03;;;17.00;73.80;;;;;;5049465;28;20280;-67
2023/04/28 11:11:11;;;;;;;3.30;2.97;;;17.20;74.40;;;;;;5042282;28;20409;-67
2023/04/28 11:13:37;;;;;;;4.23;3.77;;;17.30;74.20;;;;;;5047737;28;20417;-67
2023/04/28 11:16:03;;;;;;;4.47;4.03;;;17.20;73.70;;;;;;5054718;28;21061;-67
2023/04/28 11:18:30;;;;;;;11.77;3.57;;;17.60;73.40;;;;;;5051311;28;20191;-66
2023/04/28 11:20:56;;;;;;;7.90;3.90;;;17.40;72.00;;;;;;5050829;28;20506;-67
2023/04/28 11:23:27;;;;;;;5.23;3.50;;;17.60;73.80;;;;;;5050291;28;20974;-66
2023/04/28 11:25:56;;;;;;;3.30;3.00;;;17.20;73.30;;;;;;5056061;28;20400;-67
2023/04/28 11:28:22;;;;;;;8.03;4.83;;;17.00;73.40;;;;;;5048101;28;21002;-66
2023/04/28 11:30:47;;;;;;;4.10;3.70;;;16.90;74.30;;;;;;5054848;28;20452;-66
2023/04/28 11:33:13;;;;;;;6.23;3.50;;;17.10;74.70;;;;;;5060694;28;20184;-67
2023/04/28 11:35:43;;;;;;;4.43;3.47;;;17.30;74.00;;;;;;5058242;28;20308;-67
2023/04/28 11:38:08;;;;;;;7.13;4.00;;;17.20;73.30;;;;;;5056982;28;20182;-66
2023/04/28 11:40:34;;;;;;;7.33;3.43;;;17.40;73.80;;;;;;5060318;28;20422;-66
2023/04/28 11:43:00;;;;;;;4.20;3.63;;;17.20;73.90;;;;;;5061352;28;20258;-66
2023/04/28 11:45:26;;;;;;;5.47;4.30;;;17.50;74.70;;;;;;5056473;28;20180;-67
2023/04/28 11:47:51;;;;;;;10.33;4.00;;;17.50;74.40;;;;;;5057120;28;20271;-66
2023/04/28 11:50:34;;;;;;;6.90;4.00;;;17.60;73.90;;;;;;5049369;28;20481;-66
2023/04/28 11:53:00;;;;;;;5.53;3.97;;;17.80;73.20;;;;;;5051466;28;20158;-66
2023/04/28 11:55:27;;;;;;;7.17;5.40;;;17.90;73.00;;;;;;5052140;28;20772;-65
2023/04/28 11:58:22;;;;;;;5.97;3.97;;;18.20;72.40;;;;;;5048532;28;20208;-66
2023/04/28 12:01:10;;;;;;;9.53;4.60;;;18.30;73.60;;;;;;5046693;28;20443;-66
2023/04/28 12:03:46;;;;;;;7.20;4.30;;;18.30;71.50;;;;;;5046084;28;20448;-66
2023/04/28 12:06:19;;;;;;;6.07;4.67;;;18.30;72.00;;;;;;5046439;28;20510;-66
2023/04/28 12:08:45;;;;;;;6.07;4.03;;;18.40;71.30;;;;;;5048135;28;20437;-67
2023/04/28 12:11:13;;;;;;;5.43;4.63;;;18.20;71.80;;;;;;5053180;28;20433;-66
2023/04/28 12:13:39;;;;;;;4.50;3.90;;;18.20;73.70;;;;;;5054808;28;20173;-66
2023/04/28 12:16:06;;;;;;;6.20;4.30;;;18.00;73.30;;;;;;5047679;28;20862;-66
2023/04/28 12:18:32;;;;;;;5.17;4.67;;;18.10;72.60;;;;;;5051439;28;20828;-67
2023/04/28 12:20:58;;;;;;;5.33;3.70;;;18.00;72.50;;;;;;5054404;28;20849;-66
2023/04/28 12:23:34;;;;;;;5.00;3.67;;;17.70;73.30;;;;;;5047305;28;20459;-66
2023/04/28 12:26:01;;;;;;;5.40;3.87;;;17.80;74.50;;;;;;5051448;28;20174;-66
2023/04/28 12:28:37;;;;;;;7.80;4.43;;;17.70;74.00;;;;;;5048828;28;20721;-66
2023/04/28 12:31:10;;;;;;;6.43;4.00;;;17.80;73.60;;;;;;5052325;28;20789;-67
2023/04/28 12:33:38;;;;;;;4.80;3.60;;;17.80;74.00;;;;;;5053418;28;20420;-65
2023/04/28 12:36:05;;;;;;;11.07;5.90;;;18.00;74.20;;;;;;5049918;28;20440;-65
2023/04/28 12:38:31;;;;;;;6.47;4.73;;;18.00;73.80;;;;;;5047356;28;20782;-66
2023/04/28 12:40:57;;;;;;;5.60;4.47;;;17.80;74.50;;;;;;5043677;28;20401;-66
2023/04/28 12:43:24;;;;;;;9.13;4.60;;;18.10;74.00;;;;;;5046046;28;20492;-67
2023/04/28 12:45:51;;;;;;;7.37;5.10;;;18.20;74.60;;;;;;5048076;28;20406;-66
2023/04/28 12:48:18;;;;;;;5.60;4.73;;;18.00;74.60;;;;;;5042275;28;20408;-67
2023/04/28 12:50:43;;;;;;;6.43;4.50;;;17.80;74.40;;;;;;5046392;28;20409;-67